Latest Weather Observations for Inner Beacon

IDQ60801

Issued at 5:35 am EST Friday 22 August 2014 (issued every 30 minutes, with the page automatically refreshed every 10 minutes)

About weather observations | Map of weather stations | Latest weather observations for QLD | Other Formats
Station Details ID: 040926 Name: INNER RECIPROCAL MARKER Lat: -27.26 Lon: 153.24 Height: 20.0 m
Data from the previous 72 hours. | See also: Recent months for locations in Queensland
Date/Time
EST
Temp
°C
App
Temp
°C
Dew
Point
Rel
Hum
%
Delta-T
°C
Wind Press
QNH
hPa
Press
MSL
hPa
Rain
since 9 am
mm
Dir
 
Spd
km/h
Gust
km/h
Spd
kts
Gust
kts
22/05:30am - - - - - S 33 39 18 21 - - -
22/05:00am - - - - - SSE 37 41 20 22 - - -
22/04:30am - - - - - S 30 37 16 20 - - -
22/04:00am - - - - - S 32 37 17 20 - - -
22/03:30am - - - - - S 30 35 16 19 - - -
22/03:00am - - - - - S 26 30 14 16 - - -
22/02:30am - - - - - S 28 35 15 19 - - -
22/02:00am - - - - - S 32 39 17 21 - - -
22/01:30am - - - - - S 33 37 18 20 - - -
22/01:00am - - - - - S 28 32 15 17 - - -
22/12:30am - - - - - S 33 39 18 21 - - -
22/12:00am - - - - - S 30 35 16 19 - - -
 
Date/Time
EST
Temp
°C
App
Temp
°C
Dew
Point
Rel
Hum
%
Delta-T
°C
Wind Press
QNH
hPa
Press
MSL
hPa
Rain
since 9 am
mm
Dir
 
Spd
km/h
Gust
km/h
Spd
kts
Gust
kts
21/11:30pm - - - - - S 30 33 16 18 - - -
21/11:00pm - - - - - S 28 33 15 18 - - -
21/10:30pm - - - - - SSE 28 35 15 19 - - -
21/10:00pm - - - - - SSE 37 44 20 24 - - -
21/09:30pm - - - - - SE 41 46 22 25 - - -
21/09:00pm - - - - - SSE 43 52 23 28 - - -
21/08:30pm - - - - - SSE 43 50 23 27 - - -
21/08:00pm - - - - - SSE 43 50 23 27 - - -
21/07:30pm - - - - - SSE 43 50 23 27 - - -
21/07:00pm - - - - - SSE 39 46 21 25 - - -
21/06:30pm - - - - - SSE 35 43 19 23 - - -
21/06:00pm - - - - - S 43 48 23 26 - - -
21/05:30pm - - - - - SSE 44 56 24 30 - - -
21/05:00pm - - - - - SSE 43 52 23 28 - - -
21/04:30pm - - - - - SSE 43 50 23 27 - - -
21/04:00pm - - - - - S 46 59 25 32 - - -
21/03:30pm - - - - - SSE 44 52 24 28 - - -
21/03:00pm - - - - - SSE 37 44 20 24 - - -
21/02:30pm - - - - - SSE 43 52 23 28 - - -
21/02:00pm - - - - - SSE 41 50 22 27 - - -
21/01:30pm - - - - - SSE 35 43 19 23 - - -
21/01:00pm - - - - - SSE 41 48 22 26 - - -
21/12:30pm - - - - - SSE 43 52 23 28 - - -
21/12:00pm - - - - - S 33 41 18 22 - - -
21/11:30am - - - - - S 35 43 19 23 - - -
21/11:00am - - - - - S 41 50 22 27 - - -
21/10:30am - - - - - S 39 50 21 27 - - -
21/10:00am - - - - - S 39 46 21 25 - - -
21/09:30am - - - - - S 39 48 21 26 - - -
21/09:00am - - - - - S 26 35 14 19 - - -
21/08:30am - - - - - SSW 20 22 11 12 - - -
21/08:00am - - - - - S 32 39 17 21 - - -
21/07:30am - - - - - S 30 33 16 18 - - -
21/07:00am - - - - - SSW 30 33 16 18 - - -
21/06:30am - - - - - SSW 28 33 15 18 - - -
21/06:00am - - - - - SSW 26 30 14 16 - - -
21/05:30am - - - - - SSW 26 28 14 15 - - -
21/05:00am - - - - - SSW 22 24 12 13 - - -
21/04:30am - - - - - SSW 19 22 10 12 - - -
21/04:00am - - - - - SSW 20 24 11 13 - - -
21/03:30am - - - - - SSW 20 24 11 13 - - -
21/03:00am - - - - - SSW 20 22 11 12 - - -
21/02:30am - - - - - SSW 20 28 11 15 - - -
21/02:00am - - - - - S 20 28 11 15 - - -
21/01:30am - - - - - SSW 19 22 10 12 - - -
21/01:00am - - - - - S 26 30 14 16 - - -
21/12:30am - - - - - S 24 30 13 16 - - -
21/12:00am - - - - - S 26 32 14 17 - - -
 
Date/Time
EST
Temp
°C
App
Temp
°C
Dew
Point
Rel
Hum
%
Delta-T
°C
Wind Press
QNH
hPa
Press
MSL
hPa
Rain
since 9 am
mm
Dir
 
Spd
km/h
Gust
km/h
Spd
kts
Gust
kts
20/11:30pm - - - - - S 24 28 13 15 - - -
20/11:00pm - - - - - S 24 28 13 15 - - -
20/10:30pm - - - - - S 30 33 16 18 - - -
20/10:00pm - - - - - SSE 33 41 18 22 - - -
20/09:30pm - - - - - SSE 37 43 20 23 - - -
20/09:00pm - - - - - SSE 33 43 18 23 - - -
20/08:30pm - - - - - SSE 35 41 19 22 - - -
20/08:00pm - - - - - SSE 33 41 18 22 - - -
20/07:30pm - - - - - SSE 35 44 19 24 - - -
20/07:00pm - - - - - SSE 33 44 18 24 - - -
20/06:30pm - - - - - SSE 37 46 20 25 - - -
20/06:00pm - - - - - SSE 35 44 19 24 - - -
20/05:30pm - - - - - SSE 37 44 20 24 - - -
20/05:00pm - - - - - SSE 33 41 18 22 - - -
20/04:30pm - - - - - SE 28 33 15 18 - - -
20/04:00pm - - - - - SE 24 30 13 16 - - -
20/03:30pm - - - - - SE 15 17 8 9 - - -
20/03:00pm - - - - - SE 22 28 12 15 - - -
20/02:30pm - - - - - SE 20 26 11 14 - - -
20/02:00pm - - - - - SE 19 22 10 12 - - -
20/01:30pm - - - - - SE 26 32 14 17 - - -
20/01:00pm - - - - - SSE 26 32 14 17 - - -
20/12:30pm - - - - - SSE 19 22 10 12 - - -
20/12:00pm - - - - - S 9 11 5 6 - - -
20/11:30am - - - - - S 11 15 6 8 - - -
20/11:00am - - - - - S 13 15 7 8 - - -
20/10:30am - - - - - S 11 15 6 8 - - -
20/10:00am - - - - - SSW 13 15 7 8 - - -
20/09:30am - - - - - SSW 19 20 10 11 - - -
20/09:00am - - - - - SSW 19 20 10 11 - - -
20/08:30am - - - - - SW 19 20 10 11 - - -
20/08:00am - - - - - SW 17 20 9 11 - - -
20/07:30am - - - - - SW 20 24 11 13 - - -
20/07:00am - - - - - SW 22 26 12 14 - - -
20/06:30am - - - - - SW 22 26 12 14 - - -
20/06:00am - - - - - SSW 19 22 10 12 - - -
20/05:30am - - - - - SSW 19 20 10 11 - - -
20/05:00am - - - - - SSW 17 19 9 10 - - -
20/04:30am - - - - - SSW 19 22 10 12 - - -
20/04:00am - - - - - SW 17 19 9 10 - - -
20/03:30am - - - - - SW 17 20 9 11 - - -
20/03:00am - - - - - SW 19 22 10 12 - - -
20/02:30am - - - - - SW 15 19 8 10 - - -
20/02:00am - - - - - SW 17 19 9 10 - - -
20/01:30am - - - - - SW 17 19 9 10 - - -
20/01:00am - - - - - SW 19 20 10 11 - - -
20/12:30am - - - - - SW 17 19 9 10 - - -
20/12:00am - - - - - SW 24 28 13 15 - - -
 
Date/Time
EST
Temp
°C
App
Temp
°C
Dew
Point
Rel
Hum
%
Delta-T
°C
Wind Press
QNH
hPa
Press
MSL
hPa
Rain
since 9 am
mm
Dir
 
Spd
km/h
Gust
km/h
Spd
kts
Gust
kts
19/11:30pm - - - - - SSW 22 26 12 14 - - -
19/11:00pm - - - - - SW 19 22 10 12 - - -
19/10:30pm - - - - - WSW 17 20 9 11 - - -
19/10:00pm - - - - - WSW 22 26 12 14 - - -
19/09:30pm - - - - - WSW 19 24 10 13 - - -
19/09:00pm - - - - - WSW 19 22 10 12 - - -
19/08:30pm - - - - - WSW 20 24 11 13 - - -
19/08:00pm - - - - - WSW 24 32 13 17 - - -
19/07:30pm - - - - - WSW 30 35 16 19 - - -
19/07:00pm - - - - - WSW 32 39 17 21 - - -
19/06:30pm - - - - - W 30 35 16 19 - - -
19/06:00pm - - - - - W 30 35 16 19 - - -
19/05:30pm - - - - - WSW 35 43 19 23 - - -
19/05:00pm - - - - - W 37 43 20 23 - - -
19/04:30pm - - - - - W 33 41 18 22 - - -
19/04:00pm - - - - - W 32 37 17 20 - - -
19/03:30pm - - - - - W 33 37 18 20 - - -
19/03:00pm - - - - - W 30 33 16 18 - - -
19/02:30pm - - - - - W 26 33 14 18 - - -
19/02:00pm - - - - - W 22 28 12 15 - - -
19/01:30pm - - - - - W 24 30 13 16 - - -
19/01:00pm - - - - - W 28 33 15 18 - - -
19/12:30pm - - - - - W 24 30 13 16 - - -
19/12:00pm - - - - - W 22 26 12 14 - - -
19/11:30am - - - - - W 19 20 10 11 - - -
19/11:00am - - - - - W 22 28 12 15 - - -
19/10:30am - - - - - WSW 22 28 12 15 - - -
19/10:00am - - - - - WSW 20 24 11 13 - - -
19/09:30am - - - - - W 20 26 11 14 - - -
19/09:00am - - - - - W 30 35 16 19 - - -
19/08:30am - - - - - W 20 28 11 15 - - -
19/08:00am - - - - - WNW 26 32 14 17 - - -
19/07:30am - - - - - WNW 20 26 11 14 - - -
19/07:00am - - - - - W 33 41 18 22 - - -
19/06:30am - - - - - WNW 28 35 15 19 - - -
19/06:00am - - - - - NW 22 26 12 14 - - -

Other Formats:

Comma delimited format used in spreadsheet applications
http://www.bom.gov.au/fwo/IDQ60801/IDQ60801.94590.axf

JavaScript Object Notation format (JSON) in row-major order
http://www.bom.gov.au/fwo/IDQ60801/IDQ60801.94590.json